Sandpiper — WDG2173 — position and weather

sailwx.info

Track history (hours):
 
Tides and Currents Weather Stations Pressure Air Temp Water Temp Dewpoint Dewpoint Depression Visibility Wind Speed Wind Dir Waves Ship Positions

Sandpiper

Owner: Higman Barge Lines, Inc., Orange, TX. More information available from US FCC via Universal Licensing System and Coast Guard Vessel Documentation Center.

Last reported at 2018-Jun-23 05:24 UTC. Time now 2018-Jun-24 09:12 UTC.
Position N 27°49' W 097°29'.

Length 206 m; draft 0.6 m.

Type: . MMSI: 367512920.

Date/timePositionNaut miles runAvg speedWind from/ knotsBaromVisibWave heightAir tempDewpointWater temp
2018-Jun-23 05:24N 27°49' W 097°29'0 0.0
2018-Jun-23 04:01N 27°49' W 097°29'  
2018-Jun-16 13:48N 28°54' W 095°24'0 0.4
2018-Jun-16 13:03N 28°54' W 095°23'0 4.0
2018-Jun-16 12:59N 28°54' W 095°24'0 0.0
2018-Jun-16 12:29N 28°54' W 095°24'12 3.5
2018-Jun-16 09:04N 29°02' W 095°14'0 4.9
2018-Jun-16 09:01N 29°03' W 095°14'3 5.1
2018-Jun-16 08:31N 29°05' W 095°12'3 4.9
2018-Jun-16 08:00N 29°07' W 095°11'2 4.8
2018-Jun-16 07:30N 29°09' W 095°09'3 5.4
2018-Jun-16 07:00N 29°10' W 095°07'3 5.1
2018-Jun-16 06:30N 29°12' W 095°04'2 4.9
2018-Jun-16 06:01N 29°13' W 095°02'2 3.9
2018-Jun-16 05:30N 29°15' W 095°01'2 4.8
2018-Jun-16 05:00N 29°16' W 094°59'2 4.3
2018-Jun-16 04:31N 29°17' W 094°57'2 3.7
2018-Jun-16 04:00N 29°17' W 094°55'2 4.0
2018-Jun-16 03:31N 29°18' W 094°53'2 4.8
2018-Jun-16 03:00N 29°20' W 094°51'2 4.0
2018-Jun-16 02:30N 29°21' W 094°49'13 7.1
2018-Jun-16 00:41N 29°33' W 094°55'1 7.0
2018-Jun-16 00:30N 29°34' W 094°55'5 7.0
2018-Jun-15 23:51N 29°38' W 094°58'11 0.3
2018-Jun-14 08:17N 29°47' W 095°06'0 0.0
2018-Jun-14 07:54N 29°47' W 095°06'0 0.3
2018-Jun-14 07:21N 29°47' W 095°06'0 0.0
2018-Jun-14 06:47N 29°47' W 095°06'0 0.1
2018-Jun-14 06:26N 29°47' W 095°06'0 0.1
2018-Jun-14 04:04N 29°47' W 095°06'0 0.0
2018-Jun-14 03:55N 29°47' W 095°06'0 0.0
2018-Jun-14 03:27N 29°47' W 095°06'0 0.0
2018-Jun-14 02:40N 29°47' W 095°06'0 0.0
2018-Jun-14 02:18N 29°47' W 095°06'0 0.0
2018-Jun-14 01:58N 29°47' W 095°06'0 0.2
2018-Jun-14 01:28N 29°47' W 095°06'0 0.0
2018-Jun-14 01:00N 29°47' W 095°06'0 0.0
2018-Jun-13 06:05N 29°47' W 095°06'0 0.0
2018-Jun-13 06:00N 29°47' W 095°06'0 0.0
2018-Jun-13 05:30N 29°47' W 095°06'  
Track history (hours):
 
Tides and Currents Weather Stations Pressure Air Temp Water Temp Dewpoint Dewpoint Depression Visibility Wind Speed Wind Dir Waves Ship Positions

Sandpiper

Owner: Higman Barge Lines, Inc., Orange, TX. More information available from US FCC via Universal Licensing System and Coast Guard Vessel Documentation Center.

Last reported at 2018-Jun-23 05:24 UTC. Time now 2018-Jun-24 09:12 UTC.
Position N 27°49' W 097°29'.

Length 206 m; draft 0.6 m.

Type: . MMSI: 367512920.

Date/timePositionNaut miles runAvg speedWind from/ knotsBaromVisibWave heightAir tempDewpointWater temp
2018-Jun-23 05:24N 27°49' W 097°29'0 0.0
2018-Jun-23 04:01N 27°49' W 097°29'  
2018-Jun-16 13:48N 28°54' W 095°24'0 0.4
2018-Jun-16 13:03N 28°54' W 095°23'0 4.0
2018-Jun-16 12:59N 28°54' W 095°24'0 0.0
2018-Jun-16 12:29N 28°54' W 095°24'12 3.5
2018-Jun-16 09:04N 29°02' W 095°14'0 4.9
2018-Jun-16 09:01N 29°03' W 095°14'3 5.1
2018-Jun-16 08:31N 29°05' W 095°12'3 4.9
2018-Jun-16 08:00N 29°07' W 095°11'2 4.8
2018-Jun-16 07:30N 29°09' W 095°09'3 5.4
2018-Jun-16 07:00N 29°10' W 095°07'3 5.1
2018-Jun-16 06:30N 29°12' W 095°04'2 4.9
2018-Jun-16 06:01N 29°13' W 095°02'2 3.9
2018-Jun-16 05:30N 29°15' W 095°01'2 4.8
2018-Jun-16 05:00N 29°16' W 094°59'2 4.3
2018-Jun-16 04:31N 29°17' W 094°57'2 3.7
2018-Jun-16 04:00N 29°17' W 094°55'2 4.0
2018-Jun-16 03:31N 29°18' W 094°53'2 4.8
2018-Jun-16 03:00N 29°20' W 094°51'2 4.0
2018-Jun-16 02:30N 29°21' W 094°49'13 7.1
2018-Jun-16 00:41N 29°33' W 094°55'1 7.0
2018-Jun-16 00:30N 29°34' W 094°55'5 7.0
2018-Jun-15 23:51N 29°38' W 094°58'11 0.3
2018-Jun-14 08:17N 29°47' W 095°06'0 0.0
2018-Jun-14 07:54N 29°47' W 095°06'0 0.3
2018-Jun-14 07:21N 29°47' W 095°06'0 0.0
2018-Jun-14 06:47N 29°47' W 095°06'0 0.1
2018-Jun-14 06:26N 29°47' W 095°06'0 0.1
2018-Jun-14 04:04N 29°47' W 095°06'0 0.0
2018-Jun-14 03:55N 29°47' W 095°06'0 0.0
2018-Jun-14 03:27N 29°47' W 095°06'0 0.0
2018-Jun-14 02:40N 29°47' W 095°06'0 0.0
2018-Jun-14 02:18N 29°47' W 095°06'0 0.0
2018-Jun-14 01:58N 29°47' W 095°06'0 0.2
2018-Jun-14 01:28N 29°47' W 095°06'0 0.0
2018-Jun-14 01:00N 29°47' W 095°06'0 0.0
2018-Jun-13 06:05N 29°47' W 095°06'0 0.0
2018-Jun-13 06:00N 29°47' W 095°06'0 0.0
2018-Jun-13 05:30N 29°47' W 095°06'  

Dump ship's entire track history